createdAt,value
2023-05-14T00:01:15.136Z,90.04
2023-05-14T00:03:41.730Z,90.64
2023-05-14T00:06:09.442Z,90.79
2023-05-14T00:08:35.972Z,90.76
2023-05-14T00:11:02.611Z,91.10
2023-05-14T00:13:29.201Z,91.24
2023-05-14T00:15:55.713Z,90.93
2023-05-14T00:18:22.080Z,91.62
2023-05-14T00:20:48.705Z,92.76
2023-05-14T00:23:15.068Z,91.58
2023-05-14T00:25:41.496Z,92.04
2023-05-14T00:28:07.842Z,92.66
2023-05-14T00:30:34.883Z,93.03
2023-05-14T00:33:01.436Z,91.91
2023-05-14T00:35:28.042Z,91.65
2023-05-14T00:37:55.028Z,91.75
2023-05-14T00:40:25.794Z,91.69
2023-05-14T00:42:52.598Z,91.60
2023-05-14T00:45:19.153Z,91.77
2023-05-14T00:47:45.808Z,92.03
2023-05-14T00:50:13.106Z,91.61
2023-05-14T00:52:40.860Z,91.59
2023-05-14T00:55:08.601Z,90.88
2023-05-14T00:57:36.349Z,91.80
2023-05-14T01:00:03.705Z,91.21
2023-05-14T01:02:30.196Z,92.03
2023-05-14T01:04:57.285Z,90.97
2023-05-14T01:08:01.972Z,91.09
2023-05-14T01:10:33.887Z,92.73
2023-05-14T01:13:09.249Z,91.78
2023-05-14T01:15:37.693Z,92.09
2023-05-14T01:18:09.430Z,90.42
2023-05-14T01:20:36.550Z,91.12
2023-05-14T01:23:03.659Z,93.05
2023-05-14T01:25:31.297Z,92.77
2023-05-14T01:28:11.302Z,92.12
2023-05-14T01:30:43.379Z,93.27
2023-05-14T01:33:14.493Z,92.85
2023-05-14T01:35:41.114Z,92.69
2023-05-14T01:38:10.942Z,93.25
2023-05-14T01:40:38.395Z,92.03
2023-05-14T01:43:05.631Z,92.58
2023-05-14T01:45:35.407Z,91.99
2023-05-14T01:48:01.981Z,93.12
2023-05-14T01:50:28.382Z,93.20
2023-05-14T01:52:56.417Z,92.93
2023-05-14T01:55:24.449Z,93.16
2023-05-14T01:57:51.835Z,93.00
2023-05-14T02:00:18.957Z,93.28
2023-05-14T02:02:45.442Z,92.88
2023-05-14T02:05:13.061Z,92.66
2023-05-14T02:07:39.997Z,93.02
2023-05-14T02:10:07.271Z,93.78
2023-05-14T02:12:33.947Z,94.10
2023-05-14T02:15:00.410Z,94.06
2023-05-14T02:17:26.926Z,94.13
2023-05-14T02:19:53.378Z,92.76
2023-05-14T02:22:19.733Z,93.33
2023-05-14T02:24:46.124Z,94.23
2023-05-14T02:27:13.370Z,94.40
2023-05-14T02:29:39.909Z,93.94
2023-05-14T02:32:06.673Z,94.03
2023-05-14T02:34:34.386Z,94.69
2023-05-14T02:37:01.074Z,94.98
2023-05-14T02:39:27.535Z,95.19
2023-05-14T02:41:53.956Z,94.79
2023-05-14T02:44:20.376Z,95.29
2023-05-14T02:46:48.387Z,94.90
2023-05-14T02:49:14.794Z,94.62
2023-05-14T02:51:41.216Z,94.56
2023-05-14T02:54:07.701Z,94.10
2023-05-14T02:56:34.124Z,94.06
2023-05-14T02:59:00.737Z,93.71
2023-05-14T03:01:27.859Z,93.33
2023-05-14T03:03:54.458Z,94.17
2023-05-14T03:06:20.901Z,93.65
2023-05-14T03:08:47.352Z,94.15
2023-05-14T03:11:13.792Z,94.12
2023-05-14T03:13:40.324Z,93.94
2023-05-14T03:16:07.077Z,94.29
2023-05-14T03:18:34.729Z,93.91
2023-05-14T03:21:01.364Z,94.38
2023-05-14T03:23:27.928Z,94.58
2023-05-14T03:25:54.334Z,93.98
2023-05-14T03:28:20.816Z,95.12
2023-05-14T03:30:47.296Z,95.27
2023-05-14T03:33:13.934Z,94.55
2023-05-14T03:35:40.318Z,94.86
2023-05-14T03:38:07.431Z,95.40
2023-05-14T03:40:33.928Z,94.53
2023-05-14T03:43:00.357Z,94.55
2023-05-14T03:45:28.578Z,94.49
2023-05-14T03:47:55.051Z,95.02
2023-05-14T03:50:21.851Z,95.68
2023-05-14T03:52:48.369Z,95.24
2023-05-14T03:55:14.847Z,95.73
2023-05-14T03:57:41.435Z,95.24
2023-05-14T04:00:08.622Z,95.79
2023-05-14T04:02:35.100Z,95.42
2023-05-14T04:05:01.580Z,96.45
2023-05-14T04:07:28.114Z,96.99
2023-05-14T04:09:54.462Z,96.62
2023-05-14T04:12:20.879Z,96.66
2023-05-14T04:14:47.320Z,96.20
2023-05-14T04:17:13.785Z,97.05
2023-05-14T04:19:40.448Z,97.45
2023-05-14T04:22:06.889Z,97.81
2023-05-14T04:24:33.310Z,97.63
2023-05-14T04:26:59.848Z,97.69
2023-05-14T04:29:26.386Z,97.05
2023-05-14T04:31:53.687Z,97.01
2023-05-14T04:34:20.272Z,96.57
2023-05-14T04:36:46.880Z,96.13
2023-05-14T04:39:13.396Z,96.18
2023-05-14T04:41:39.853Z,95.53
2023-05-14T04:44:07.050Z,95.91
2023-05-14T04:46:33.471Z,96.13
2023-05-14T04:48:59.924Z,96.45
2023-05-14T04:51:26.382Z,96.10
2023-05-14T04:53:52.748Z,95.96
2023-05-14T04:56:19.173Z,96.11
2023-05-14T04:58:45.685Z,95.93
2023-05-14T05:01:12.230Z,95.35
2023-05-14T05:03:38.708Z,95.49
2023-05-14T05:06:05.426Z,95.06
2023-05-14T05:08:31.853Z,95.02
2023-05-14T05:10:58.238Z,95.97
2023-05-14T05:13:24.739Z,94.51
2023-05-14T05:15:51.234Z,94.72
2023-05-14T05:18:17.786Z,94.18
2023-05-14T05:20:44.160Z,94.89
2023-05-14T05:23:10.967Z,93.68
2023-05-14T05:25:37.376Z,92.05
2023-05-14T05:28:03.836Z,92.78
2023-05-14T05:30:30.305Z,92.76
2023-05-14T05:32:57.429Z,93.25
2023-05-14T05:35:23.869Z,92.52
2023-05-14T05:37:50.277Z,91.69
2023-05-14T05:40:16.914Z,92.53
2023-05-14T05:42:43.600Z,92.05
2023-05-14T05:45:10.643Z,92.20
2023-05-14T05:47:37.118Z,90.51
2023-05-14T05:50:03.870Z,90.53
2023-05-14T05:52:30.407Z,90.45
2023-05-14T05:54:56.807Z,90.05
2023-05-14T05:57:25.660Z,89.91
2023-05-14T05:59:53.361Z,89.61
2023-05-14T06:02:20.315Z,87.37
2023-05-14T06:04:46.794Z,87.11
2023-05-14T06:07:13.223Z,88.54
2023-05-14T06:09:39.604Z,85.85
2023-05-14T06:12:06.611Z,87.15
2023-05-14T06:14:33.029Z,85.47
2023-05-14T06:16:59.551Z,83.04
2023-05-14T06:19:26.169Z,84.29
2023-05-14T06:21:52.864Z,83.18
2023-05-14T06:24:20.285Z,83.95
2023-05-14T06:26:46.717Z,83.47
2023-05-14T06:29:13.086Z,81.95
2023-05-14T06:31:39.590Z,81.08
2023-05-14T06:34:06.096Z,82.58
2023-05-14T06:36:32.518Z,81.66
2023-05-14T06:38:59.003Z,81.63
2023-05-14T06:41:26.046Z,79.54
2023-05-14T06:43:52.482Z,81.46
2023-05-14T06:46:18.875Z,79.10
2023-05-14T06:48:45.791Z,77.16
2023-05-14T06:51:13.315Z,76.72
2023-05-14T06:53:40.882Z,78.88
2023-05-14T06:56:07.804Z,78.08
2023-05-14T06:58:34.501Z,76.84
2023-05-14T07:01:01.236Z,77.09
2023-05-14T07:03:29.171Z,78.14
2023-05-14T07:05:55.731Z,79.00
2023-05-14T07:08:22.261Z,78.68
2023-05-14T07:10:48.621Z,78.73
2023-05-14T07:13:15.000Z,76.66
2023-05-14T07:15:41.450Z,72.79
2023-05-14T07:18:07.898Z,74.80
2023-05-14T07:20:34.493Z,75.75
2023-05-14T07:23:00.975Z,75.51
2023-05-14T07:25:27.462Z,76.05
2023-05-14T07:27:53.904Z,76.65
2023-05-14T07:30:20.778Z,76.09
2023-05-14T07:32:47.236Z,76.47
2023-05-14T07:35:13.990Z,76.87
2023-05-14T07:37:40.576Z,76.81
2023-05-14T07:40:07.534Z,76.90
2023-05-14T07:42:36.918Z,76.45
2023-05-14T07:45:04.570Z,75.44
2023-05-14T07:47:31.114Z,74.46
2023-05-14T07:49:57.809Z,74.90
2023-05-14T07:52:25.515Z,73.89
2023-05-14T07:54:52.193Z,74.26
2023-05-14T07:57:19.810Z,73.37
2023-05-14T07:59:47.744Z,74.64
2023-05-14T08:02:15.871Z,73.46
2023-05-14T08:04:42.547Z,72.00
2023-05-14T08:07:09.308Z,74.26
2023-05-14T08:09:35.969Z,74.05
2023-05-14T08:12:02.808Z,75.14
2023-05-14T08:14:29.289Z,73.10
2023-05-14T08:16:55.756Z,74.54
2023-05-14T08:19:23.143Z,71.13
2023-05-14T08:21:49.582Z,70.46
2023-05-14T08:24:16.235Z,66.93
2023-05-14T08:26:42.931Z,67.55
2023-05-14T08:29:10.822Z,69.90
2023-05-14T08:31:38.092Z,66.22
2023-05-14T08:34:04.644Z,69.90
2023-05-14T08:36:31.521Z,64.29
2023-05-14T08:38:58.254Z,64.33
2023-05-14T08:41:25.396Z,63.70
2023-05-14T08:44:09.240Z,65.26
2023-05-14T08:46:38.229Z,64.64
2023-05-14T08:49:23.285Z,65.84
2023-05-14T08:51:49.948Z,63.40
2023-05-14T08:54:17.738Z,66.08
2023-05-14T08:56:46.369Z,65.80
2023-05-14T08:59:13.456Z,63.86
2023-05-14T09:01:47.833Z,63.14
2023-05-14T09:04:19.385Z,63.49
2023-05-14T09:06:48.706Z,63.34
2023-05-14T09:09:15.432Z,64.14
2023-05-14T09:11:42.758Z,64.79
2023-05-14T09:14:09.921Z,63.79
2023-05-14T09:16:37.120Z,63.20
2023-05-14T09:19:04.791Z,64.05
2023-05-14T09:21:33.449Z,64.82
2023-05-14T09:24:00.277Z,62.67
2023-05-14T09:26:27.634Z,63.51
2023-05-14T09:29:03.655Z,64.42
2023-05-14T09:31:31.867Z,65.44
2023-05-14T09:33:59.204Z,62.63
2023-05-14T09:36:29.006Z,63.65
2023-05-14T09:38:58.593Z,62.47
2023-05-14T09:41:25.090Z,63.43
2023-05-14T09:43:51.740Z,62.81
2023-05-14T09:46:18.465Z,64.79
2023-05-14T09:48:46.130Z,65.41
2023-05-14T09:51:13.716Z,63.71
2023-05-14T09:53:41.258Z,61.72
2023-05-14T09:56:07.657Z,60.86
2023-05-14T09:58:34.068Z,64.22
2023-05-14T10:01:01.841Z,62.00
2023-05-14T10:03:30.751Z,65.90
2023-05-14T10:06:01.740Z,65.19
2023-05-14T10:08:35.276Z,63.83
2023-05-14T10:11:05.289Z,63.98
2023-05-14T10:13:37.311Z,64.05
2023-05-14T10:16:16.352Z,62.64
2023-05-14T10:18:51.793Z,62.95
2023-05-14T10:21:21.725Z,62.29
2023-05-14T10:23:50.312Z,64.02
2023-05-14T10:26:17.053Z,63.07
2023-05-14T10:28:44.003Z,63.93
2023-05-14T10:31:10.569Z,64.30
2023-05-14T10:33:47.232Z,65.01
2023-05-14T10:36:13.813Z,63.92
2023-05-14T10:38:40.193Z,64.13
2023-05-14T10:41:21.538Z,63.44
2023-05-14T10:43:48.166Z,59.82
2023-05-14T10:46:14.837Z,60.38
2023-05-14T10:48:43.173Z,60.82
2023-05-14T10:51:10.889Z,60.24
2023-05-14T10:53:38.377Z,60.29
2023-05-14T10:56:09.616Z,59.41
2023-05-14T10:58:38.055Z,61.67
2023-05-14T11:01:06.646Z,58.41
2023-05-14T11:03:40.133Z,60.70
2023-05-14T11:06:07.481Z,62.81
2023-05-14T11:08:34.135Z,60.73
2023-05-14T11:11:00.712Z,59.77
2023-05-14T11:13:27.299Z,59.76
2023-05-14T11:15:53.901Z,60.89
2023-05-14T11:18:31.005Z,59.46
2023-05-14T11:21:01.168Z,60.09
2023-05-14T11:23:27.994Z,60.02
2023-05-14T11:25:55.770Z,58.75
2023-05-14T11:28:23.323Z,59.31
2023-05-14T11:30:51.278Z,59.22
2023-05-14T11:33:18.574Z,62.73
2023-05-14T11:35:46.535Z,60.19
2023-05-14T11:38:20.394Z,59.00
2023-05-14T11:40:54.399Z,57.11
2023-05-14T11:43:23.635Z,57.22
2023-05-14T11:45:54.230Z,58.50
2023-05-14T11:48:21.785Z,55.98
2023-05-14T11:50:49.660Z,55.72
2023-05-14T11:53:20.759Z,56.88
2023-05-14T11:55:47.493Z,54.65
2023-05-14T11:58:14.189Z,56.25
2023-05-14T12:00:40.741Z,55.37
2023-05-14T12:03:10.090Z,57.51
2023-05-14T12:05:39.181Z,57.79
2023-05-14T12:08:22.252Z,57.54
2023-05-14T12:10:48.859Z,55.81
2023-05-14T12:13:17.277Z,60.29
2023-05-14T12:15:48.639Z,57.46
2023-05-14T12:18:23.858Z,57.92
2023-05-14T12:20:52.112Z,57.57
2023-05-14T12:23:31.619Z,58.68
2023-05-14T12:26:09.165Z,54.39
2023-05-14T12:28:39.305Z,55.29
2023-05-14T12:31:06.405Z,53.76
2023-05-14T12:33:32.939Z,55.72
2023-05-14T12:36:19.859Z,56.17
2023-05-14T12:38:47.552Z,56.50
2023-05-14T12:41:14.082Z,57.60
2023-05-14T12:43:43.692Z,57.70
2023-05-14T12:46:10.652Z,57.89
2023-05-14T12:48:37.024Z,60.73
2023-05-14T12:51:03.802Z,62.45
2023-05-14T12:53:30.255Z,61.05
2023-05-14T12:55:56.651Z,62.02
2023-05-14T12:58:23.079Z,61.84
2023-05-14T13:00:49.628Z,61.41
2023-05-14T13:03:16.345Z,60.42
2023-05-14T13:05:42.742Z,59.76
2023-05-14T13:08:09.949Z,60.40
2023-05-14T13:10:36.341Z,61.44
2023-05-14T13:13:02.811Z,61.60
2023-05-14T13:15:31.473Z,60.62
2023-05-14T13:17:58.138Z,61.31
2023-05-14T13:20:27.205Z,63.84
2023-05-14T13:22:53.703Z,59.58
2023-05-14T13:25:20.162Z,60.41
2023-05-14T13:27:46.564Z,61.47
2023-05-14T13:30:13.254Z,61.40
2023-05-14T13:32:42.104Z,61.23
2023-05-14T13:35:09.225Z,59.43
2023-05-14T13:37:36.068Z,61.21
2023-05-14T13:40:04.347Z,60.43
2023-05-14T13:42:31.004Z,60.91
2023-05-14T13:44:59.171Z,61.06
2023-05-14T13:47:26.465Z,60.54
2023-05-14T13:49:53.460Z,61.30
2023-05-14T13:52:19.928Z,60.27
2023-05-14T13:54:46.465Z,60.33
2023-05-14T13:57:12.911Z,68.75
2023-05-14T13:59:39.440Z,73.16
2023-05-14T14:02:06.340Z,73.15
2023-05-14T14:04:32.900Z,75.50
2023-05-14T14:06:59.411Z,77.76
2023-05-14T14:09:26.171Z,78.30
2023-05-14T14:11:52.839Z,79.11
2023-05-14T14:14:19.409Z,79.69
2023-05-14T14:16:45.944Z,83.57
2023-05-14T14:19:12.302Z,85.90
2023-05-14T14:21:42.617Z,87.24
2023-05-14T14:24:09.071Z,84.43
2023-05-14T14:26:35.589Z,86.11
2023-05-14T14:29:01.991Z,85.00
2023-05-14T14:31:29.102Z,85.52
2023-05-14T14:33:55.496Z,86.30
2023-05-14T14:36:22.053Z,87.20
2023-05-14T14:38:48.536Z,88.62
2023-05-14T14:41:14.947Z,88.60
2023-05-14T14:43:42.075Z,88.85
2023-05-14T14:46:09.209Z,87.55
2023-05-14T14:48:39.011Z,87.05
2023-05-14T14:51:06.911Z,88.73
2023-05-14T14:53:34.408Z,88.18
2023-05-14T14:56:02.003Z,89.34
2023-05-14T14:58:28.619Z,87.07
2023-05-14T15:00:56.747Z,87.84
2023-05-14T15:03:24.727Z,88.32
2023-05-14T15:05:53.274Z,89.26
2023-05-14T15:08:20.848Z,88.20
2023-05-14T15:10:47.382Z,88.14
2023-05-14T15:13:13.914Z,87.64
2023-05-14T15:15:40.560Z,90.03
2023-05-14T15:18:07.052Z,89.13
2023-05-14T15:20:33.664Z,89.61
2023-05-14T15:23:00.275Z,89.43
2023-05-14T15:25:27.311Z,89.31
2023-05-14T15:27:53.895Z,89.41
2023-05-14T15:30:20.608Z,89.39
2023-05-14T15:32:47.108Z,89.37
2023-05-14T15:35:13.960Z,89.39
2023-05-14T15:37:42.609Z,89.83
2023-05-14T15:40:10.336Z,90.80
2023-05-14T15:42:44.462Z,91.84
2023-05-14T15:45:12.678Z,92.84
2023-05-14T15:47:39.850Z,92.21
2023-05-14T15:50:07.136Z,92.03
2023-05-14T15:52:33.951Z,92.53
2023-05-14T15:55:00.583Z,89.33
2023-05-14T15:57:27.516Z,90.59
2023-05-14T15:59:54.081Z,90.60
2023-05-14T16:02:20.565Z,89.80
2023-05-14T16:04:48.693Z,92.76
2023-05-14T16:07:15.736Z,90.76
2023-05-14T16:09:42.362Z,90.30
2023-05-14T16:12:09.283Z,89.21
2023-05-14T16:14:36.281Z,88.52
2023-05-14T16:17:02.721Z,89.99
2023-05-14T16:19:29.057Z,88.51
2023-05-14T16:21:55.609Z,89.28
2023-05-14T16:24:22.040Z,91.55
2023-05-14T16:26:48.589Z,89.18
2023-05-14T16:29:15.174Z,87.66
2023-05-14T16:31:41.659Z,88.46
2023-05-14T16:34:08.094Z,87.76
2023-05-14T16:36:34.553Z,87.48
2023-05-14T16:41:30.740Z,87.05
2023-05-14T16:43:57.228Z,86.09
2023-05-14T16:46:23.768Z,86.23
2023-05-14T16:48:50.615Z,86.12
2023-05-14T16:51:17.064Z,85.56
2023-05-14T16:53:43.506Z,85.96
2023-05-14T16:56:11.032Z,86.08
2023-05-14T16:58:38.416Z,88.99
2023-05-14T17:01:06.345Z,87.41
2023-05-14T17:03:33.864Z,87.45
2023-05-14T17:06:00.543Z,87.71
2023-05-14T17:08:32.249Z,87.46
2023-05-14T17:10:59.021Z,87.23
2023-05-14T17:13:25.560Z,88.56
2023-05-14T17:15:52.050Z,87.36
2023-05-14T17:18:18.520Z,88.23
2023-05-14T17:20:44.872Z,91.53
2023-05-14T17:23:11.232Z,90.14
2023-05-14T17:25:37.572Z,88.20
2023-05-14T17:28:04.215Z,88.20
2023-05-14T17:30:30.650Z,87.08
2023-05-14T17:32:57.069Z,87.89
2023-05-14T17:35:23.675Z,89.41
2023-05-14T17:37:50.312Z,88.23
2023-05-14T17:40:16.887Z,88.66
2023-05-14T17:42:45.412Z,88.65
2023-05-14T17:45:13.175Z,89.78
2023-05-14T17:47:39.783Z,91.04
2023-05-14T17:50:07.128Z,89.61
2023-05-14T17:52:33.924Z,89.45
2023-05-14T17:55:00.359Z,89.23
2023-05-14T17:57:26.998Z,88.87
2023-05-14T17:59:53.444Z,89.45
2023-05-14T18:02:19.890Z,90.60
2023-05-14T18:04:46.636Z,90.51
2023-05-14T18:07:13.255Z,89.56
2023-05-14T18:09:39.630Z,89.22
2023-05-14T18:12:06.651Z,89.30
2023-05-14T18:14:33.533Z,90.25
2023-05-14T18:17:00.080Z,91.27
2023-05-14T18:19:26.572Z,90.89
2023-05-14T18:21:55.337Z,91.35
2023-05-14T18:24:22.258Z,91.84
2023-05-14T18:26:48.730Z,92.37
2023-05-14T18:29:15.265Z,91.61
2023-05-14T18:31:41.666Z,91.50
2023-05-14T18:34:08.258Z,91.71
2023-05-14T18:36:34.923Z,92.36
2023-05-14T18:39:01.394Z,91.85
2023-05-14T18:41:27.772Z,92.18
2023-05-14T18:43:54.213Z,91.95
2023-05-14T18:46:20.928Z,92.63
2023-05-14T18:48:47.388Z,92.65
2023-05-14T18:51:13.892Z,92.95
2023-05-14T18:53:40.424Z,92.91
2023-05-14T18:56:07.461Z,92.58
2023-05-14T18:58:35.084Z,93.15
2023-05-14T19:01:01.633Z,93.71
2023-05-14T19:03:28.354Z,92.72
2023-05-14T19:05:54.851Z,93.48
2023-05-14T19:08:21.339Z,93.39
2023-05-14T19:10:47.731Z,92.69
2023-05-14T19:13:15.863Z,93.08
2023-05-14T19:15:43.100Z,93.37
2023-05-14T19:18:09.637Z,93.41
2023-05-14T19:20:36.176Z,93.66
2023-05-14T19:23:02.574Z,93.31
2023-05-14T19:25:29.320Z,93.46
2023-05-14T19:27:56.635Z,93.05
2023-05-14T19:30:23.379Z,93.71
2023-05-14T19:32:49.998Z,94.74
2023-05-14T19:35:16.508Z,94.65
2023-05-14T19:37:43.030Z,94.08
2023-05-14T19:40:09.670Z,95.41
2023-05-14T19:42:38.978Z,94.60
2023-05-14T19:45:05.987Z,95.75
2023-05-14T19:47:32.624Z,94.92
2023-05-14T19:49:59.137Z,96.07
2023-05-14T19:52:26.793Z,96.48
2023-05-14T19:54:53.218Z,95.66
2023-05-14T19:57:19.779Z,95.35
2023-05-14T19:59:46.361Z,94.62
2023-05-14T20:02:18.093Z,96.02
2023-05-14T20:04:45.979Z,96.21
2023-05-14T20:07:15.312Z,95.88
2023-05-14T20:09:42.096Z,96.31
2023-05-14T20:12:09.150Z,95.70
2023-05-14T20:14:35.979Z,96.91
2023-05-14T20:17:02.488Z,96.62
2023-05-14T20:19:29.018Z,96.03
2023-05-14T20:21:56.178Z,96.10
2023-05-14T20:24:22.800Z,96.06
2023-05-14T20:26:49.307Z,94.74
2023-05-14T20:29:15.671Z,95.17
2023-05-14T20:31:42.101Z,95.05
2023-05-14T20:34:08.492Z,95.06
2023-05-14T20:36:35.780Z,96.03
2023-05-14T20:39:02.333Z,94.95
2023-05-14T20:41:28.732Z,95.52
2023-05-14T20:43:55.093Z,95.96
2023-05-14T20:46:21.683Z,96.17
2023-05-14T20:48:48.615Z,96.75
2023-05-14T20:51:15.031Z,95.67
2023-05-14T20:53:41.697Z,95.72
2023-05-14T20:56:08.149Z,94.91
2023-05-14T20:58:35.188Z,94.82
2023-05-14T21:01:01.715Z,95.73
2023-05-14T21:03:28.259Z,95.89
2023-05-14T21:05:56.661Z,96.96
2023-05-14T21:08:23.194Z,96.21
2023-05-14T21:10:49.648Z,96.53
2023-05-14T21:13:16.147Z,95.61
2023-05-14T21:15:42.784Z,94.71
2023-05-14T21:18:09.197Z,95.34
2023-05-14T21:20:35.741Z,95.44
2023-05-14T21:23:02.132Z,94.71
2023-05-14T21:25:28.683Z,95.27
2023-05-14T21:27:55.313Z,94.77
2023-05-14T21:30:21.822Z,94.85
2023-05-14T21:32:48.336Z,96.33
2023-05-14T21:35:14.877Z,96.48
2023-05-14T21:37:41.564Z,95.94
2023-05-14T21:40:14.865Z,95.72
2023-05-14T21:42:41.317Z,95.70
2023-05-14T21:45:08.267Z,96.29
2023-05-14T21:47:34.979Z,96.53
2023-05-14T21:50:01.564Z,96.49
2023-05-14T21:52:27.966Z,96.29
2023-05-14T21:54:54.427Z,96.88
2023-05-14T21:57:20.966Z,95.66
2023-05-14T21:59:48.445Z,96.48
2023-05-14T22:02:15.128Z,96.86
2023-05-14T22:04:41.909Z,96.21
2023-05-14T22:07:08.366Z,97.38
2023-05-14T22:09:34.784Z,96.64
2023-05-14T22:12:01.163Z,97.27
2023-05-14T22:14:27.666Z,96.69
2023-05-14T22:16:54.276Z,96.99
2023-05-14T22:19:21.099Z,97.07
2023-05-14T22:21:47.602Z,97.11
2023-05-14T22:24:14.047Z,95.86
2023-05-14T22:26:40.641Z,96.75
2023-05-14T22:29:07.116Z,96.67
2023-05-14T22:31:33.523Z,97.21
2023-05-14T22:34:00.013Z,97.22
2023-05-14T22:36:26.500Z,96.42
2023-05-14T22:38:52.898Z,96.40
2023-05-14T22:41:19.982Z,96.57
2023-05-14T22:43:48.572Z,96.30
2023-05-14T22:46:15.885Z,96.71
2023-05-14T22:48:42.341Z,96.82
2023-05-14T22:51:08.802Z,96.93
2023-05-14T22:53:35.232Z,96.21
2023-05-14T22:56:02.114Z,96.26
2023-05-14T22:58:28.630Z,97.26
2023-05-14T23:00:55.006Z,97.00
2023-05-14T23:03:22.518Z,97.01
2023-05-14T23:05:49.180Z,97.11
2023-05-14T23:08:15.676Z,97.03
2023-05-14T23:10:42.039Z,97.18
2023-05-14T23:13:08.461Z,97.47
2023-05-14T23:15:35.019Z,96.58
2023-05-14T23:18:01.635Z,97.93
2023-05-14T23:20:28.116Z,97.66
2023-05-14T23:22:54.522Z,97.70
2023-05-14T23:25:20.956Z,98.30
2023-05-14T23:27:48.050Z,98.03
2023-05-14T23:30:14.510Z,97.20
2023-05-14T23:32:44.050Z,97.97
2023-05-14T23:35:10.559Z,97.48
2023-05-14T23:37:41.760Z,97.26
2023-05-14T23:40:09.442Z,97.11
2023-05-14T23:42:35.887Z,97.47
2023-05-14T23:45:02.289Z,97.88
2023-05-14T23:47:28.771Z,97.80
2023-05-14T23:49:55.323Z,97.54
2023-05-14T23:52:21.754Z,97.73
2023-05-14T23:54:48.098Z,97.19
2023-05-14T23:57:15.235Z,97.43
2023-05-14T23:59:41.701Z,97.02
